createdAt,value
2018-11-05T00:01:29.275Z,37.40
2018-11-05T00:03:59.529Z,34.40
2018-11-05T00:06:33.513Z,38.93
2018-11-05T00:09:06.381Z,37.83
2018-11-05T00:11:43.406Z,36.60
2018-11-05T00:14:12.985Z,38.80
2018-11-05T00:16:43.587Z,39.50
2018-11-05T00:19:16.363Z,39.80
2018-11-05T00:21:45.976Z,40.67
2018-11-05T00:24:15.795Z,40.60
2018-11-05T00:26:48.218Z,43.40
2018-11-05T00:29:17.820Z,42.53
2018-11-05T00:31:53.723Z,40.27
2018-11-05T00:34:24.264Z,44.47
2018-11-05T00:36:53.855Z,45.33
2018-11-05T00:39:23.409Z,44.10
2018-11-05T00:41:53.141Z,44.07
2018-11-05T00:44:24.132Z,44.00
2018-11-05T00:46:54.321Z,44.13
2018-11-05T00:49:25.577Z,45.13
2018-11-05T00:51:56.103Z,43.90
2018-11-05T00:54:31.337Z,42.63
2018-11-05T00:57:02.298Z,45.30
2018-11-05T00:59:31.850Z,47.33
2018-11-05T01:02:02.220Z,46.73
2018-11-05T01:04:33.942Z,44.10
2018-11-05T01:07:05.900Z,44.50
2018-11-05T01:09:36.553Z,42.23
2018-11-05T01:12:07.159Z,44.87
2018-11-05T01:14:39.680Z,44.70
2018-11-05T01:17:11.739Z,46.10
2018-11-05T01:19:41.843Z,47.63
2018-11-05T01:22:12.589Z,49.20
2018-11-05T01:24:43.187Z,46.13
2018-11-05T01:27:29.425Z,47.40
2018-11-05T01:30:02.270Z,43.23
2018-11-05T01:32:36.670Z,46.70
2018-11-05T01:35:09.576Z,44.67
2018-11-05T01:37:39.177Z,44.27
2018-11-05T01:40:15.436Z,46.07
2018-11-05T01:42:47.726Z,49.03
2018-11-05T01:45:25.129Z,47.23
2018-11-05T01:48:03.338Z,48.03
2018-11-05T01:50:51.272Z,48.27
2018-11-05T01:53:32.358Z,45.20
2018-11-05T01:56:02.008Z,49.07
2018-11-05T01:58:32.932Z,45.33
2018-11-05T02:01:07.133Z,49.00
2018-11-05T02:03:37.596Z,47.73
2018-11-05T02:06:08.007Z,49.23
2018-11-05T02:08:39.904Z,50.23
2018-11-05T02:11:09.634Z,51.80
2018-11-05T02:13:42.734Z,48.77
2018-11-05T02:16:14.392Z,49.10
2018-11-05T02:18:44.738Z,49.43
2018-11-05T02:21:14.508Z,49.97
2018-11-05T02:23:47.815Z,47.47
2018-11-05T02:26:19.141Z,50.17
2018-11-05T02:28:48.862Z,52.83
2018-11-05T02:31:19.204Z,48.70
2018-11-05T02:33:53.940Z,50.80
2018-11-05T02:36:23.490Z,50.90
2018-11-05T02:38:52.850Z,52.00
2018-11-05T02:41:25.836Z,50.43
2018-11-05T02:43:58.385Z,48.87
2018-11-05T02:46:29.465Z,47.50
2018-11-05T02:49:00.017Z,52.60
2018-11-05T02:51:31.197Z,50.00
2018-11-05T02:54:02.901Z,48.13
2018-11-05T02:56:34.737Z,47.73
2018-11-05T02:59:04.965Z,44.33
2018-11-05T03:01:36.065Z,50.27
2018-11-05T03:04:05.475Z,51.50
2018-11-05T03:06:34.876Z,50.40
2018-11-05T03:09:06.188Z,50.97
2018-11-05T03:11:35.544Z,49.57
2018-11-05T03:14:05.031Z,50.47
2018-11-05T03:16:34.602Z,50.20
2018-11-05T03:19:06.252Z,47.10
2018-11-05T03:21:35.601Z,46.33
2018-11-05T03:24:05.272Z,45.57
2018-11-05T03:26:34.707Z,46.57
2018-11-05T03:29:04.040Z,49.33
2018-11-05T03:31:35.941Z,46.20
2018-11-05T03:34:05.496Z,44.77
2018-11-05T03:36:34.752Z,44.53
2018-11-05T03:39:08.052Z,43.60
2018-11-05T03:41:38.299Z,44.87
2018-11-05T03:44:09.016Z,44.97
2018-11-05T03:46:40.790Z,46.10
2018-11-05T03:49:11.737Z,46.57
2018-11-05T03:51:43.032Z,46.83
2018-11-05T03:54:14.917Z,48.63
2018-11-05T03:56:46.357Z,48.07
2018-11-05T03:59:15.993Z,48.10
2018-11-05T04:01:46.395Z,48.67
2018-11-05T04:04:16.005Z,47.90
2018-11-05T04:06:52.616Z,50.97
2018-11-05T04:09:22.124Z,48.20
2018-11-05T04:11:51.540Z,45.47
2018-11-05T04:14:20.838Z,43.87
2018-11-05T04:16:50.788Z,44.97
2018-11-05T04:19:20.083Z,45.13
2018-11-05T04:21:49.589Z,44.83
2018-11-05T04:24:18.963Z,43.60
2018-11-05T04:26:49.037Z,47.23
2018-11-05T04:29:21.952Z,45.73
2018-11-05T04:31:51.910Z,43.30
2018-11-05T04:34:21.296Z,45.67
2018-11-05T04:36:52.165Z,44.97
2018-11-05T04:39:21.569Z,48.20
2018-11-05T04:41:50.893Z,46.80
2018-11-05T04:44:20.380Z,45.80
2018-11-05T04:46:49.785Z,44.00
2018-11-05T04:49:19.138Z,44.37
2018-11-05T04:51:48.595Z,42.17
2018-11-05T04:54:17.884Z,43.27
2018-11-05T04:56:47.396Z,44.83
2018-11-05T04:59:16.672Z,43.03
2018-11-05T05:01:46.990Z,40.73
2018-11-05T05:04:16.253Z,39.37
2018-11-05T05:06:46.751Z,42.20
2018-11-05T05:09:20.752Z,42.53
2018-11-05T05:11:50.207Z,42.80
2018-11-05T05:14:19.757Z,42.10
2018-11-05T05:16:50.624Z,41.20
2018-11-05T05:19:21.951Z,45.17
2018-11-05T05:21:52.969Z,41.20
2018-11-05T05:24:43.403Z,43.47
2018-11-05T05:27:18.303Z,41.27
2018-11-05T05:29:50.462Z,43.13
2018-11-05T05:32:25.595Z,45.70
2018-11-05T05:34:57.270Z,42.63
2018-11-05T05:37:26.841Z,46.47
2018-11-05T05:40:03.427Z,44.10
2018-11-05T05:42:33.795Z,44.10
2018-11-05T05:45:06.952Z,43.73
2018-11-05T05:47:39.445Z,45.67
2018-11-05T05:50:15.284Z,43.40
2018-11-05T05:52:52.166Z,43.00
2018-11-05T05:55:25.548Z,47.90
2018-11-05T05:58:01.557Z,53.10
2018-11-05T06:00:34.407Z,52.67
2018-11-05T06:03:04.757Z,57.37
2018-11-05T06:05:37.658Z,53.00
2018-11-05T06:08:09.300Z,42.43
2018-11-05T06:10:38.865Z,44.53
2018-11-05T06:13:12.432Z,41.57
2018-11-05T06:15:47.691Z,44.17
2018-11-05T06:18:19.105Z,46.40
2018-11-05T06:20:49.259Z,45.83
2018-11-05T06:23:21.293Z,50.23
2018-11-05T06:25:57.363Z,53.90
2018-11-05T06:28:31.546Z,44.80
2018-11-05T06:31:07.702Z,45.97
2018-11-05T06:33:48.089Z,45.87
2018-11-05T06:36:20.542Z,44.27
2018-11-05T06:42:15.573Z,40.23
2018-11-05T06:44:46.824Z,43.13
2018-11-05T06:47:17.210Z,40.80
2018-11-05T06:49:48.733Z,42.23
2018-11-05T06:52:19.422Z,42.00
2018-11-05T06:54:54.433Z,41.60
2018-11-05T06:57:24.926Z,42.30
2018-11-05T07:00:00.268Z,42.93
2018-11-05T07:02:32.989Z,40.53
2018-11-05T07:05:04.395Z,39.80
2018-11-05T07:07:37.465Z,41.00
2018-11-05T07:10:11.399Z,40.03
2018-11-05T07:12:50.388Z,39.70
2018-11-05T07:15:21.592Z,42.87
2018-11-05T07:17:52.161Z,43.50
2018-11-05T07:20:23.527Z,41.20
2018-11-05T07:23:00.328Z,40.70
2018-11-05T07:25:31.268Z,44.93
2018-11-05T07:28:03.974Z,43.77
2018-11-05T07:30:33.731Z,40.70
2018-11-05T07:33:19.585Z,41.97
2018-11-05T07:35:52.295Z,41.23
2018-11-05T07:38:28.577Z,44.87
2018-11-05T07:40:59.708Z,41.87
2018-11-05T07:43:31.832Z,41.30
2018-11-05T07:46:02.926Z,41.63
2018-11-05T07:48:39.701Z,41.27
2018-11-05T07:51:14.333Z,42.13
2018-11-05T07:53:48.421Z,44.37
2018-11-05T07:56:21.491Z,40.77
2018-11-05T07:58:57.484Z,40.37
2018-11-05T08:01:31.730Z,41.00
2018-11-05T08:04:09.774Z,45.10
2018-11-05T08:08:50.991Z,42.67
2018-11-05T08:11:21.331Z,43.17
2018-11-05T08:14:07.036Z,41.87
2018-11-05T08:16:47.561Z,45.20
2018-11-05T08:19:29.542Z,46.43
2018-11-05T08:22:08.281Z,44.67
2018-11-05T08:24:47.006Z,48.30
2018-11-05T08:27:17.949Z,47.17
2018-11-05T08:33:26.510Z,47.53
2018-11-05T08:36:03.702Z,44.17
2018-11-05T08:38:42.026Z,42.50
2018-11-05T08:41:15.010Z,42.77
2018-11-05T08:43:45.496Z,42.63
2018-11-05T08:46:19.300Z,45.93
2018-11-05T08:48:48.794Z,42.20
2018-11-05T08:51:22.194Z,44.27
2018-11-05T08:53:53.503Z,46.90
2018-11-05T08:56:24.152Z,50.90
2018-11-05T08:58:53.648Z,47.10
2018-11-05T09:01:23.397Z,47.43
2018-11-05T09:03:57.946Z,44.80
2018-11-05T09:06:29.486Z,45.13
2018-11-05T09:09:00.109Z,46.07
2018-11-05T09:11:33.274Z,43.53
2018-11-05T09:14:05.773Z,44.27
2018-11-05T09:16:35.597Z,41.13
2018-11-05T09:19:09.651Z,43.47
2018-11-05T09:21:41.198Z,44.73
2018-11-05T09:24:21.181Z,45.83
2018-11-05T09:27:40.505Z,46.03
2018-11-05T09:30:19.899Z,44.63
2018-11-05T09:32:49.946Z,44.33
2018-11-05T09:35:21.315Z,44.43
2018-11-05T09:37:53.427Z,44.97
2018-11-05T09:40:24.207Z,46.77
2018-11-05T09:42:56.094Z,45.57
2018-11-05T09:45:27.053Z,46.57
2018-11-05T09:47:58.097Z,45.37
2018-11-05T09:50:30.194Z,41.43
2018-11-05T09:53:02.920Z,41.97
2018-11-05T09:55:38.048Z,42.93
2018-11-05T09:58:09.274Z,43.77
2018-11-05T10:00:40.784Z,45.10
2018-11-05T10:03:16.740Z,42.47
2018-11-05T10:05:50.613Z,43.03
2018-11-05T10:08:22.370Z,43.73
2018-11-05T10:10:56.146Z,41.27
2018-11-05T10:13:25.648Z,43.87
2018-11-05T10:15:55.067Z,40.37
2018-11-05T10:18:24.590Z,39.90
2018-11-05T10:20:53.888Z,40.33
2018-11-05T10:23:23.215Z,43.93
2018-11-05T10:25:52.668Z,41.30
2018-11-05T10:28:22.120Z,40.73
2018-11-05T10:30:51.407Z,38.87
2018-11-05T10:33:20.686Z,40.77
2018-11-05T10:35:58.478Z,39.67
2018-11-05T10:38:28.099Z,41.73
2018-11-05T10:40:58.860Z,39.23
2018-11-05T10:43:28.201Z,39.70
2018-11-05T10:45:58.757Z,39.23
2018-11-05T10:48:29.080Z,39.40
2018-11-05T10:50:59.186Z,38.93
2018-11-05T10:53:28.548Z,38.07
2018-11-05T10:55:57.814Z,37.60
2018-11-05T10:58:27.082Z,36.90
2018-11-05T11:01:01.776Z,36.53
2018-11-05T11:03:37.733Z,34.87
2018-11-05T11:06:08.941Z,35.93
2018-11-05T11:08:38.228Z,36.40
2018-11-05T11:11:08.584Z,37.27
2018-11-05T11:13:37.871Z,36.23
2018-11-05T11:16:07.185Z,36.80
2018-11-05T11:18:36.464Z,38.20
2018-11-05T11:21:08.890Z,36.93
2018-11-05T11:23:38.205Z,37.93
2018-11-05T11:26:07.456Z,36.00
2018-11-05T11:28:36.792Z,36.83
2018-11-05T11:31:06.237Z,37.13
2018-11-05T11:33:38.387Z,36.27
2018-11-05T11:36:08.511Z,35.63
2018-11-05T11:38:43.613Z,37.03
2018-11-05T11:44:26.564Z,36.40
2018-11-05T11:47:05.389Z,34.50
2018-11-05T11:49:53.707Z,33.57
2018-11-05T11:52:26.784Z,34.67
2018-11-05T11:59:10.301Z,33.33
2018-11-05T12:01:54.805Z,34.17
2018-11-05T12:04:42.952Z,33.67
2018-11-05T12:07:18.731Z,33.37
2018-11-05T12:09:56.372Z,34.10
2018-11-05T12:12:42.537Z,32.03
2018-11-05T12:15:23.077Z,32.70
2018-11-05T12:17:56.645Z,32.33
2018-11-05T12:20:27.815Z,31.67
2018-11-05T12:22:58.325Z,32.90
2018-11-05T12:25:28.763Z,32.23
2018-11-05T12:27:59.491Z,31.83
2018-11-05T12:30:42.889Z,30.93
2018-11-05T12:33:27.258Z,31.67
2018-11-05T12:35:58.275Z,30.70
2018-11-05T12:38:29.949Z,31.40
2018-11-05T12:41:31.148Z,31.37
2018-11-05T12:44:03.460Z,29.60
2018-11-05T12:46:48.986Z,29.07
2018-11-05T12:49:21.719Z,28.33
2018-11-05T12:51:53.285Z,30.23
2018-11-05T12:54:36.717Z,30.80
2018-11-05T12:57:24.612Z,30.17
2018-11-05T12:59:58.622Z,28.93
2018-11-05T13:03:50.914Z,31.07
2018-11-05T13:06:25.118Z,27.53
2018-11-05T13:09:01.876Z,27.93
2018-11-05T13:11:36.235Z,27.90
2018-11-05T13:14:13.835Z,26.97
2018-11-05T13:16:44.222Z,27.47
2018-11-05T13:19:17.095Z,28.63
2018-11-05T13:22:04.198Z,27.63
2018-11-05T13:24:50.148Z,27.53
2018-11-05T13:27:21.735Z,27.63
2018-11-05T13:29:52.661Z,28.97
2018-11-05T13:32:35.248Z,28.23
2018-11-05T13:35:06.000Z,27.30
2018-11-05T13:37:36.302Z,27.20
2018-11-05T13:40:06.550Z,27.63
2018-11-05T13:42:36.423Z,28.33
2018-11-05T13:45:09.439Z,26.10
2018-11-05T13:47:39.800Z,27.27
2018-11-05T13:50:13.104Z,27.70
2018-11-05T13:52:43.802Z,29.03
2018-11-05T13:55:34.893Z,27.73
2018-11-05T13:58:07.898Z,28.33
2018-11-05T14:00:51.546Z,26.90
2018-11-05T14:03:35.057Z,26.53
2018-11-05T14:06:17.022Z,26.67
2018-11-05T14:08:52.858Z,27.03
2018-11-05T14:11:47.324Z,26.63
2018-11-05T14:14:34.173Z,26.10
2018-11-05T14:17:20.402Z,25.57
2018-11-05T14:23:07.720Z,24.07
2018-11-05T14:25:49.381Z,22.50
2018-11-05T14:28:25.951Z,22.73
2018-11-05T14:31:03.135Z,21.00
2018-11-05T14:34:00.981Z,20.20
2018-11-05T14:36:40.480Z,21.60
2018-11-05T14:39:17.953Z,21.33
2018-11-05T14:45:20.751Z,22.67
2018-11-05T14:47:53.490Z,25.70
2018-11-05T14:50:48.958Z,20.93
2018-11-05T14:53:22.389Z,21.97
2018-11-05T14:56:39.176Z,22.13
2018-11-05T14:59:44.719Z,22.30
2018-11-05T15:02:24.354Z,22.87
2018-11-05T15:04:56.509Z,21.63
2018-11-05T15:07:51.234Z,22.43
2018-11-05T15:10:28.597Z,21.60
2018-11-05T15:13:23.910Z,22.80
2018-11-05T15:16:08.169Z,22.60
2018-11-05T15:18:41.330Z,21.70
2018-11-05T15:21:15.626Z,23.33
2018-11-05T15:25:17.728Z,22.00
2018-11-05T15:27:53.999Z,21.73
2018-11-05T15:30:30.521Z,24.03
2018-11-05T15:33:03.433Z,23.70
2018-11-05T15:35:33.248Z,23.73
2018-11-05T15:38:11.875Z,23.57
2018-11-05T15:42:13.143Z,23.37
2018-11-05T15:44:44.521Z,22.53
2018-11-05T15:47:19.772Z,24.47
2018-11-05T15:50:01.948Z,24.67
2018-11-05T15:52:40.170Z,25.87
2018-11-05T15:58:29.906Z,24.83
2018-11-05T16:04:21.156Z,25.13
2018-11-05T16:07:02.946Z,25.37
2018-11-05T16:09:46.457Z,25.83
2018-11-05T16:15:19.086Z,26.50
2018-11-05T16:17:53.260Z,27.03
2018-11-05T16:20:28.194Z,27.00
2018-11-05T16:23:09.300Z,27.37
2018-11-05T16:25:45.249Z,26.17
2018-11-05T16:28:21.810Z,26.83
2018-11-05T16:31:08.780Z,27.17
2018-11-05T16:47:41.745Z,28.43
2018-11-05T16:50:31.421Z,28.33
2018-11-05T17:01:56.170Z,29.80
2018-11-05T17:04:30.390Z,30.43
2018-11-05T17:09:56.470Z,29.77
2018-11-05T17:12:29.403Z,30.40
2018-11-05T17:15:08.211Z,30.47
2018-11-05T17:42:31.327Z,33.43
2018-11-05T17:45:20.104Z,34.83
2018-11-05T17:48:12.255Z,32.70
2018-11-05T17:50:47.759Z,30.53
2018-11-05T17:59:37.596Z,28.50
2018-11-05T18:08:30.476Z,29.83
2018-11-05T18:11:56.942Z,29.17
2018-11-05T18:22:43.512Z,28.57
2018-11-05T18:25:19.157Z,31.33
2018-11-05T18:31:00.377Z,29.60
2018-11-05T18:33:33.369Z,30.40
2018-11-05T18:36:03.373Z,31.37
2018-11-05T18:41:45.182Z,28.50
2018-11-05T18:44:20.912Z,30.17
2018-11-05T18:46:51.918Z,32.17
2018-11-05T18:49:22.818Z,30.80
2018-11-05T18:51:57.484Z,32.67
2018-11-05T18:54:34.594Z,34.73
2018-11-05T19:03:26.668Z,32.00
2018-11-05T19:06:10.026Z,32.03
2018-11-05T19:08:44.360Z,32.00
2018-11-05T19:11:31.190Z,39.60
2018-11-05T19:14:10.662Z,34.17
2018-11-05T19:16:57.714Z,32.23
2018-11-05T19:20:02.527Z,34.80
2018-11-05T19:25:31.215Z,33.10
2018-11-05T19:30:49.084Z,35.33
2018-11-05T19:33:34.241Z,35.37
2018-11-05T19:36:27.721Z,35.07
2018-11-05T19:39:14.362Z,35.83
2018-11-05T19:42:08.254Z,35.30
2018-11-05T19:44:50.156Z,34.70
2018-11-05T19:51:21.862Z,33.43
2018-11-05T19:53:59.046Z,34.17
2018-11-05T19:56:36.984Z,35.43
2018-11-05T20:02:40.915Z,35.03
2018-11-05T20:05:30.047Z,33.87
2018-11-05T20:11:23.147Z,33.17
2018-11-05T20:13:57.899Z,35.23
2018-11-05T20:16:31.794Z,33.53
2018-11-05T20:19:03.364Z,34.67
2018-11-05T20:21:46.802Z,34.10
2018-11-05T20:27:09.311Z,32.47
2018-11-05T20:29:43.996Z,32.10
2018-11-05T20:32:38.105Z,34.10
2018-11-05T20:35:48.135Z,33.97
2018-11-05T20:39:02.755Z,33.53
2018-11-05T20:44:05.266Z,33.37
2018-11-05T20:47:05.470Z,32.77
2018-11-05T20:50:07.045Z,32.37
2018-11-05T20:52:53.324Z,32.70
2018-11-05T20:55:55.059Z,31.50
2018-11-05T20:58:40.958Z,33.90
2018-11-05T21:01:25.750Z,34.30
2018-11-05T21:19:04.374Z,33.10
2018-11-05T21:21:54.758Z,32.87
2018-11-05T21:24:52.353Z,34.33
2018-11-05T21:27:51.742Z,34.27
2018-11-05T21:39:51.629Z,32.00
2018-11-05T21:42:49.628Z,36.43
2018-11-05T21:45:29.491Z,36.07
2018-11-05T21:48:23.153Z,33.30
2018-11-05T21:54:29.248Z,34.93
2018-11-05T21:57:09.979Z,36.00
2018-11-05T21:59:49.073Z,36.17
2018-11-05T22:03:04.855Z,34.63
2018-11-05T22:06:51.688Z,34.80
2018-11-05T22:12:31.100Z,35.97
2018-11-05T22:15:06.172Z,34.53
2018-11-05T22:17:54.961Z,36.40
2018-11-05T22:23:25.536Z,36.73
2018-11-05T22:25:59.452Z,33.93
2018-11-05T22:28:34.325Z,34.37
2018-11-05T22:31:10.104Z,33.50
2018-11-05T22:33:43.692Z,35.80
2018-11-05T22:36:28.007Z,34.90
2018-11-05T22:39:11.628Z,33.37
2018-11-05T22:41:45.350Z,33.40
2018-11-05T22:44:20.141Z,33.87
2018-11-05T22:46:59.427Z,35.23
2018-11-05T22:49:39.743Z,33.53
2018-11-05T22:52:18.356Z,33.53
2018-11-05T22:54:53.658Z,34.20
2018-11-05T22:57:27.713Z,35.20
2018-11-05T23:00:00.162Z,35.10
2018-11-05T23:02:32.481Z,33.97
2018-11-05T23:05:08.763Z,34.37
2018-11-05T23:07:48.045Z,34.17
2018-11-05T23:10:24.009Z,33.67
2018-11-05T23:12:56.300Z,33.40
2018-11-05T23:15:37.613Z,32.93
2018-11-05T23:18:15.577Z,33.27
2018-11-05T23:20:46.622Z,32.93
2018-11-05T23:23:28.788Z,40.20
2018-11-05T23:26:06.541Z,33.43
2018-11-05T23:28:43.160Z,32.30
2018-11-05T23:31:18.993Z,32.30
2018-11-05T23:33:51.222Z,33.73
2018-11-05T23:36:24.936Z,34.30
2018-11-05T23:38:55.397Z,33.47
2018-11-05T23:41:30.994Z,38.93
2018-11-05T23:44:08.181Z,33.03
2018-11-05T23:46:40.446Z,32.47
2018-11-05T23:49:12.616Z,34.53
2018-11-05T23:51:44.594Z,33.97
2018-11-05T23:54:17.093Z,34.73
2018-11-05T23:56:52.344Z,35.50
2018-11-05T23:59:25.735Z,34.13
